createdAt,value
2018-01-14T00:00:09.298Z,15.60
2018-01-14T00:02:39.000Z,17.97
2018-01-14T00:05:08.744Z,18.67
2018-01-14T00:07:37.686Z,20.83
2018-01-14T00:10:06.697Z,19.00
2018-01-14T00:12:35.691Z,18.43
2018-01-14T00:15:04.643Z,19.50
2018-01-14T00:17:33.694Z,17.80
2018-01-14T00:20:02.697Z,16.17
2018-01-14T00:22:35.511Z,16.80
2018-01-14T00:25:04.496Z,14.50
2018-01-14T00:27:33.488Z,17.57
2018-01-14T00:30:02.469Z,16.53
2018-01-14T00:32:31.440Z,17.37
2018-01-14T00:35:00.405Z,16.17
2018-01-14T00:37:29.407Z,17.33
2018-01-14T00:39:58.441Z,18.10
2018-01-14T00:42:27.412Z,17.53
2018-01-14T00:44:56.429Z,17.00
2018-01-14T00:47:25.724Z,16.47
2018-01-14T00:49:55.477Z,17.63
2018-01-14T00:52:24.473Z,18.07
2018-01-14T00:54:54.277Z,17.90
2018-01-14T00:57:23.228Z,16.97
2018-01-14T00:59:52.343Z,18.87
2018-01-14T01:02:21.616Z,15.80
2018-01-14T01:04:50.617Z,16.83
2018-01-14T01:07:19.677Z,17.73
2018-01-14T01:09:48.624Z,18.23
2018-01-14T01:12:17.590Z,18.60
2018-01-14T01:14:46.527Z,19.23
2018-01-14T01:17:15.500Z,15.90
2018-01-14T01:19:44.465Z,19.07
2018-01-14T01:22:13.422Z,18.10
2018-01-14T01:24:42.398Z,18.10
2018-01-14T01:27:11.748Z,20.50
2018-01-14T01:29:40.777Z,20.77
2018-01-14T01:32:09.723Z,21.10
2018-01-14T01:34:38.648Z,31.23
2018-01-14T01:37:07.626Z,17.83
2018-01-14T01:39:36.634Z,25.40
2018-01-14T01:42:05.609Z,17.23
2018-01-14T01:44:35.352Z,21.93
2018-01-14T01:47:04.289Z,16.27
2018-01-14T01:49:33.666Z,16.90
2018-01-14T01:52:03.402Z,22.93
2018-01-14T01:54:32.744Z,18.70
2018-01-14T01:57:01.702Z,19.13
2018-01-14T01:59:30.680Z,17.77
2018-01-14T02:01:59.634Z,19.80
2018-01-14T02:04:29.380Z,17.30
2018-01-14T02:06:58.345Z,20.33
2018-01-14T02:09:27.299Z,15.93
2018-01-14T02:11:56.666Z,14.70
2018-01-14T02:14:25.648Z,19.43
2018-01-14T02:16:55.388Z,17.10
2018-01-14T02:19:24.350Z,18.03
2018-01-14T02:21:53.298Z,14.77
2018-01-14T02:24:22.706Z,16.87
2018-01-14T02:26:51.665Z,18.13
2018-01-14T02:29:20.668Z,17.20
2018-01-14T02:31:49.624Z,16.37
2018-01-14T02:34:19.379Z,18.73
2018-01-14T02:36:48.749Z,16.93
2018-01-14T02:39:17.716Z,17.83
2018-01-14T02:41:47.411Z,16.53
2018-01-14T02:44:16.804Z,17.87
2018-01-14T02:46:47.292Z,18.33
2018-01-14T02:49:16.294Z,17.37
2018-01-14T02:51:45.263Z,17.60
2018-01-14T02:54:14.633Z,15.97
2018-01-14T02:56:44.372Z,18.40
2018-01-14T02:59:13.854Z,14.93
2018-01-14T03:01:42.844Z,18.80
2018-01-14T03:04:12.569Z,15.03
2018-01-14T03:06:41.650Z,16.03
2018-01-14T03:09:11.358Z,17.40
2018-01-14T03:11:40.710Z,16.63
2018-01-14T03:14:10.493Z,16.27
2018-01-14T03:16:39.456Z,16.57
2018-01-14T03:19:08.830Z,15.50
2018-01-14T03:21:38.559Z,17.87
2018-01-14T03:24:07.516Z,14.50
2018-01-14T03:26:37.248Z,15.63
2018-01-14T03:29:06.621Z,16.50
2018-01-14T03:31:35.560Z,15.30
2018-01-14T03:34:05.276Z,14.93
2018-01-14T03:36:34.997Z,15.50
2018-01-14T03:39:03.944Z,19.47
2018-01-14T03:41:32.930Z,19.87
2018-01-14T03:44:02.643Z,14.40
2018-01-14T03:46:31.602Z,17.17
2018-01-14T03:49:00.526Z,15.03
2018-01-14T03:51:29.501Z,14.73
2018-01-14T03:53:58.447Z,16.20
2018-01-14T03:56:28.158Z,17.17
2018-01-14T03:58:57.524Z,15.90
2018-01-14T04:01:26.495Z,18.40
2018-01-14T04:03:55.440Z,17.10
2018-01-14T04:06:25.179Z,16.80
2018-01-14T04:08:54.121Z,17.67
2018-01-14T04:11:23.113Z,16.00
2018-01-14T04:13:52.080Z,19.03
2018-01-14T04:16:21.431Z,19.87
2018-01-14T04:18:51.169Z,15.47
2018-01-14T04:21:21.275Z,20.93
2018-01-14T04:23:50.653Z,14.20
2018-01-14T04:26:20.374Z,20.73
2018-01-14T04:28:49.359Z,18.40
2018-01-14T04:31:19.032Z,19.33
2018-01-14T04:33:48.012Z,18.17
2018-01-14T04:36:16.974Z,19.57
2018-01-14T04:38:45.954Z,19.47
2018-01-14T04:41:14.905Z,19.20
2018-01-14T04:43:43.923Z,17.50
2018-01-14T04:46:12.879Z,13.77
2018-01-14T04:48:42.599Z,22.63
2018-01-14T04:51:11.582Z,23.17
2018-01-14T04:53:40.548Z,19.60
2018-01-14T04:56:09.520Z,17.70
2018-01-14T04:58:38.462Z,19.23
2018-01-14T05:01:07.525Z,21.70
2018-01-14T05:03:38.023Z,17.50
2018-01-14T05:06:07.779Z,19.90
2018-01-14T05:08:37.515Z,17.10
2018-01-14T05:11:07.070Z,16.93
2018-01-14T05:13:36.069Z,17.90
2018-01-14T05:16:05.020Z,18.70
2018-01-14T05:18:34.389Z,19.40
2018-01-14T05:21:03.736Z,17.57
2018-01-14T05:23:33.475Z,18.50
2018-01-14T05:26:02.428Z,15.27
2018-01-14T05:28:32.161Z,17.47
2018-01-14T05:31:01.506Z,19.03
2018-01-14T05:33:30.493Z,21.17
2018-01-14T05:35:59.441Z,19.10
2018-01-14T05:38:28.413Z,18.20
2018-01-14T05:40:57.785Z,17.90
2018-01-14T05:43:26.758Z,20.20
2018-01-14T05:45:55.723Z,20.37
2018-01-14T05:48:24.664Z,17.67
2018-01-14T05:50:54.420Z,22.80
2018-01-14T05:53:24.144Z,18.83
2018-01-14T05:55:54.403Z,19.53
2018-01-14T05:58:23.342Z,19.20
2018-01-14T06:00:52.729Z,20.80
2018-01-14T06:03:21.782Z,17.97
2018-01-14T06:05:50.743Z,16.97
2018-01-14T06:08:19.782Z,17.13
2018-01-14T06:10:48.696Z,22.50
2018-01-14T06:13:18.450Z,15.80
2018-01-14T06:15:47.423Z,21.03
2018-01-14T06:18:16.802Z,20.70
2018-01-14T06:20:46.522Z,21.53
2018-01-14T06:23:16.245Z,21.10
2018-01-14T06:25:45.227Z,19.13
2018-01-14T06:28:14.568Z,21.17
2018-01-14T06:30:44.332Z,18.33
2018-01-14T06:33:13.996Z,16.27
2018-01-14T06:35:42.983Z,14.60
2018-01-14T06:38:11.970Z,19.90
2018-01-14T06:40:41.015Z,17.90
2018-01-14T06:43:10.729Z,18.23
2018-01-14T06:45:39.757Z,16.87
2018-01-14T06:48:08.712Z,20.13
2018-01-14T06:50:38.192Z,22.53
2018-01-14T06:53:07.141Z,18.47
2018-01-14T06:55:36.501Z,19.40
2018-01-14T06:58:05.455Z,21.90
2018-01-14T07:00:34.440Z,18.20
2018-01-14T07:03:03.404Z,17.00
2018-01-14T07:05:33.512Z,21.87
2018-01-14T07:08:02.478Z,18.77
2018-01-14T07:10:32.221Z,16.47
2018-01-14T07:13:03.816Z,17.67
2018-01-14T07:15:32.841Z,16.37
2018-01-14T07:18:01.773Z,18.90
2018-01-14T07:20:30.824Z,22.03
2018-01-14T07:23:00.112Z,20.37
2018-01-14T07:25:29.506Z,18.33
2018-01-14T07:27:58.867Z,17.17
2018-01-14T07:30:28.575Z,18.60
2018-01-14T07:32:57.546Z,16.90
2018-01-14T07:35:27.392Z,18.70
2018-01-14T07:37:56.769Z,18.50
2018-01-14T07:40:26.492Z,18.73
2018-01-14T07:42:56.224Z,21.23
2018-01-14T07:45:25.191Z,16.80
2018-01-14T07:47:55.049Z,16.50
2018-01-14T07:50:24.060Z,17.20
2018-01-14T07:52:53.380Z,20.67
2018-01-14T07:55:22.378Z,19.33
2018-01-14T07:57:51.696Z,21.20
2018-01-14T08:00:20.679Z,17.50
2018-01-14T08:02:50.500Z,18.60
2018-01-14T08:05:20.247Z,18.00
2018-01-14T08:07:49.671Z,17.73
2018-01-14T08:10:18.661Z,16.67
2018-01-14T08:12:47.610Z,15.90
2018-01-14T08:15:16.591Z,16.47
2018-01-14T08:17:45.582Z,16.20
2018-01-14T08:20:14.546Z,16.33
2018-01-14T08:22:43.512Z,14.23
2018-01-14T08:25:12.877Z,13.83
2018-01-14T08:27:41.832Z,14.93
2018-01-14T08:30:11.950Z,15.50
2018-01-14T08:32:41.891Z,15.03
2018-01-14T08:35:13.574Z,14.83
2018-01-14T08:37:44.163Z,15.83
2018-01-14T08:40:14.588Z,16.13
2018-01-14T08:42:43.972Z,16.00
2018-01-14T08:45:13.361Z,15.63
2018-01-14T08:47:44.001Z,15.07
2018-01-14T08:50:12.973Z,14.87
2018-01-14T08:52:41.927Z,14.30
2018-01-14T08:55:11.691Z,12.83
2018-01-14T08:57:41.741Z,13.10
2018-01-14T09:00:10.651Z,12.03
2018-01-14T09:02:39.687Z,14.37
2018-01-14T09:05:09.418Z,16.90
2018-01-14T09:07:39.533Z,16.40
2018-01-14T09:10:08.535Z,14.30
2018-01-14T09:12:38.057Z,18.00
2018-01-14T09:15:08.451Z,12.60
2018-01-14T09:17:38.729Z,14.00
2018-01-14T09:20:07.722Z,13.90
2018-01-14T09:22:36.738Z,12.87
2018-01-14T09:25:07.303Z,17.83
2018-01-14T09:27:37.373Z,12.70
2018-01-14T09:30:06.812Z,14.30
2018-01-14T09:32:37.582Z,11.87
2018-01-14T09:35:06.599Z,13.27
2018-01-14T09:37:36.677Z,12.43
2018-01-14T09:40:05.703Z,14.37
2018-01-14T09:42:34.710Z,13.73
2018-01-14T09:45:03.683Z,11.67
2018-01-14T09:47:35.692Z,13.63
2018-01-14T09:50:06.626Z,14.90
2018-01-14T09:52:36.684Z,13.40
2018-01-14T09:55:06.073Z,13.17
2018-01-14T09:57:35.813Z,13.60
2018-01-14T10:00:06.349Z,13.40
2018-01-14T10:02:36.164Z,15.67
2018-01-14T10:05:07.406Z,12.40
2018-01-14T10:07:36.384Z,12.80
2018-01-14T10:10:06.542Z,15.20
2018-01-14T10:12:36.344Z,12.70
2018-01-14T10:15:06.398Z,13.13
2018-01-14T10:17:36.539Z,15.17
2018-01-14T10:20:06.316Z,16.40
2018-01-14T10:22:35.682Z,13.37
2018-01-14T10:25:04.615Z,15.70
2018-01-14T10:27:35.907Z,18.33
2018-01-14T10:30:04.866Z,14.67
2018-01-14T10:32:39.120Z,14.53
2018-01-14T10:35:08.464Z,14.33
2018-01-14T10:37:40.829Z,12.97
2018-01-14T10:40:10.594Z,12.50
2018-01-14T10:42:39.546Z,11.97
2018-01-14T10:45:08.635Z,12.00
2018-01-14T10:47:38.412Z,15.50
2018-01-14T10:50:07.409Z,16.10
2018-01-14T10:52:36.881Z,12.70
2018-01-14T10:55:06.815Z,13.83
2018-01-14T10:57:35.855Z,12.93
2018-01-14T11:00:04.870Z,15.90
2018-01-14T11:02:35.463Z,15.27
2018-01-14T11:05:04.543Z,15.70
2018-01-14T11:07:33.515Z,13.37
2018-01-14T11:10:02.501Z,13.80
2018-01-14T11:12:31.505Z,16.00
2018-01-14T11:15:02.667Z,15.90
2018-01-14T11:17:32.426Z,12.70
2018-01-14T11:20:01.733Z,11.80
2018-01-14T11:22:31.470Z,13.10
2018-01-14T11:25:01.245Z,12.67
2018-01-14T11:27:31.057Z,13.80
2018-01-14T11:30:03.018Z,11.00
2018-01-14T11:32:32.405Z,14.70
2018-01-14T11:35:01.826Z,13.70
2018-01-14T11:37:33.869Z,15.43
2018-01-14T11:40:03.609Z,14.43
2018-01-14T11:42:33.323Z,14.53
2018-01-14T11:45:04.279Z,17.30
2018-01-14T11:47:33.231Z,14.80
2018-01-14T11:50:02.200Z,14.17
2018-01-14T11:52:31.949Z,14.80
2018-01-14T11:55:02.870Z,13.13
2018-01-14T11:57:32.587Z,14.83
2018-01-14T12:00:02.459Z,15.00
2018-01-14T12:02:32.209Z,15.93
2018-01-14T12:05:01.620Z,18.80
2018-01-14T12:07:30.548Z,14.33
2018-01-14T12:10:01.141Z,12.03
2018-01-14T12:12:30.516Z,19.07
2018-01-14T12:14:59.543Z,16.40
2018-01-14T12:17:28.500Z,15.80
2018-01-14T12:19:57.482Z,14.23
2018-01-14T12:22:28.065Z,16.43
2018-01-14T12:24:57.828Z,15.43
2018-01-14T12:27:27.884Z,16.27
2018-01-14T12:29:58.649Z,19.47
2018-01-14T12:45:55.271Z,18.23
2018-01-14T12:48:25.107Z,17.63
2018-01-14T12:50:54.823Z,17.50
2018-01-14T12:53:23.865Z,15.67
2018-01-14T12:55:53.721Z,20.10
2018-01-14T12:58:22.724Z,20.90
2018-01-14T13:00:51.675Z,19.53
2018-01-14T13:03:20.691Z,17.33
2018-01-14T13:05:49.666Z,19.03
2018-01-14T13:08:21.110Z,18.97
2018-01-14T13:10:51.458Z,17.10
2018-01-14T13:13:21.201Z,17.70
2018-01-14T13:15:50.555Z,18.40
2018-01-14T13:18:19.500Z,18.23
2018-01-14T13:20:48.549Z,17.60
2018-01-14T13:23:19.009Z,17.30
2018-01-14T13:25:47.955Z,17.87
2018-01-14T13:28:17.577Z,15.23
2018-01-14T13:30:46.511Z,17.80
2018-01-14T13:33:15.464Z,18.57
2018-01-14T13:35:45.214Z,20.27
2018-01-14T13:38:14.639Z,18.57
2018-01-14T13:40:44.387Z,18.87
2018-01-14T13:43:14.141Z,22.10
2018-01-14T13:45:43.164Z,19.13
2018-01-14T13:48:12.113Z,19.97
2018-01-14T13:50:41.474Z,17.83
2018-01-14T13:53:10.830Z,18.03
2018-01-14T13:55:39.784Z,20.57
2018-01-14T13:58:09.528Z,20.70
2018-01-14T14:00:38.504Z,19.93
2018-01-14T14:03:07.481Z,17.50
2018-01-14T14:05:36.466Z,21.30
2018-01-14T14:08:06.426Z,18.80
2018-01-14T14:10:35.385Z,18.97
2018-01-14T14:13:04.368Z,20.77
2018-01-14T14:15:34.112Z,23.60
2018-01-14T14:18:03.077Z,23.70
2018-01-14T14:20:32.484Z,19.67
2018-01-14T14:23:02.603Z,19.87
2018-01-14T14:25:32.026Z,15.60
2018-01-14T14:28:01.795Z,21.50
2018-01-14T14:30:31.527Z,26.27
2018-01-14T14:33:00.479Z,20.27
2018-01-14T14:35:29.465Z,21.90
2018-01-14T14:37:58.833Z,21.67
2018-01-14T14:40:28.621Z,18.50
2018-01-14T14:42:58.352Z,25.33
2018-01-14T14:45:27.329Z,21.20
2018-01-14T14:47:56.729Z,22.00
2018-01-14T14:50:26.460Z,24.00
2018-01-14T14:52:55.911Z,22.47
2018-01-14T14:55:24.892Z,21.70
2018-01-14T14:57:54.610Z,21.73
2018-01-14T15:00:24.001Z,22.70
2018-01-14T15:02:53.773Z,22.57
2018-01-14T15:05:22.757Z,20.93
2018-01-14T15:07:52.888Z,24.60
2018-01-14T15:10:21.851Z,25.77
2018-01-14T15:12:51.645Z,27.13
2018-01-14T15:15:20.581Z,23.40
2018-01-14T15:17:49.547Z,25.90
2018-01-14T15:20:18.552Z,27.00
2018-01-14T15:22:47.581Z,22.43
2018-01-14T15:25:17.374Z,23.90
2018-01-14T15:27:46.323Z,22.37
2018-01-14T15:30:16.210Z,23.30
2018-01-14T15:32:46.702Z,25.80
2018-01-14T15:35:15.660Z,24.10
2018-01-14T15:37:45.469Z,22.37
2018-01-14T15:40:15.962Z,23.63
2018-01-14T15:42:46.681Z,23.03
2018-01-14T15:45:15.634Z,24.90
2018-01-14T15:47:44.639Z,22.63
2018-01-14T15:50:13.625Z,27.67
2018-01-14T15:52:43.866Z,26.97
2018-01-14T15:55:12.902Z,23.57
2018-01-14T15:57:41.927Z,26.20
2018-01-14T16:00:12.145Z,22.20
2018-01-14T16:02:41.585Z,25.27
2018-01-14T16:05:11.262Z,23.90
2018-01-14T16:07:40.940Z,24.90
2018-01-14T16:10:09.993Z,24.27
2018-01-14T16:12:39.448Z,25.93
2018-01-14T16:15:08.898Z,24.50
2018-01-14T16:17:38.319Z,26.20
2018-01-14T16:20:07.314Z,25.00
2018-01-14T16:22:37.705Z,25.17
2018-01-14T16:25:06.713Z,24.47
2018-01-14T16:27:36.042Z,30.10
2018-01-14T16:30:05.980Z,28.57
2018-01-14T16:32:36.081Z,27.90
2018-01-14T16:35:05.076Z,26.53
2018-01-14T16:37:34.938Z,30.57
2018-01-14T16:40:04.535Z,26.53
2018-01-14T16:42:33.531Z,29.67
2018-01-14T16:45:03.286Z,27.93
2018-01-14T16:47:32.711Z,26.30
2018-01-14T16:50:02.501Z,26.57
2018-01-14T16:52:31.482Z,27.43
2018-01-14T16:55:00.478Z,29.47
2018-01-14T16:57:30.334Z,29.27
2018-01-14T17:00:00.132Z,30.77
2018-01-14T17:02:29.516Z,29.17
2018-01-14T17:04:58.913Z,32.50
2018-01-14T17:07:29.473Z,23.40
2018-01-14T17:09:59.217Z,25.40
2018-01-14T17:12:28.462Z,29.33
2018-01-14T17:14:58.930Z,28.63
2018-01-14T17:17:28.668Z,34.37
2018-01-14T17:19:58.387Z,28.97
2018-01-14T17:22:27.330Z,28.80
2018-01-14T17:24:56.354Z,31.30
2018-01-14T17:27:26.511Z,28.00
2018-01-14T17:29:55.866Z,27.80
2018-01-14T17:32:25.666Z,28.90
2018-01-14T17:34:54.622Z,32.33
2018-01-14T17:37:24.537Z,27.60
2018-01-14T17:39:54.356Z,29.27
2018-01-14T17:42:24.173Z,32.80
2018-01-14T17:44:53.517Z,30.33
2018-01-14T17:47:22.504Z,29.27
2018-01-14T17:49:51.522Z,30.50
2018-01-14T17:52:20.595Z,31.40
2018-01-14T17:54:49.909Z,30.83
2018-01-14T17:57:19.715Z,28.93
2018-01-14T17:59:48.697Z,33.57
2018-01-14T18:02:18.338Z,37.17
2018-01-14T18:04:47.453Z,50.97
2018-01-14T18:07:16.424Z,35.47
2018-01-14T18:09:45.803Z,29.60
2018-01-14T18:12:15.556Z,41.80
2018-01-14T18:14:44.816Z,35.87
2018-01-14T18:17:25.546Z,40.30
2018-01-14T18:19:54.955Z,35.27
2018-01-14T18:22:24.692Z,32.87
2018-01-14T18:24:54.121Z,34.33
2018-01-14T18:27:23.688Z,31.93
2018-01-14T18:29:52.684Z,29.70
2018-01-14T18:32:21.695Z,33.63
2018-01-14T18:34:51.674Z,29.70
2018-01-14T18:37:20.703Z,30.97
2018-01-14T18:39:50.437Z,36.37
2018-01-14T18:42:19.544Z,36.23
2018-01-14T18:44:48.530Z,33.73
2018-01-14T18:47:17.534Z,27.43
2018-01-14T18:49:47.436Z,35.87
2018-01-14T18:52:17.218Z,36.37
2018-01-14T18:54:46.818Z,30.50
2018-01-14T18:57:16.622Z,32.37
2018-01-14T18:59:45.833Z,32.67
2018-01-14T19:02:15.679Z,33.60
2018-01-14T19:04:45.545Z,39.45
2018-01-14T19:07:15.421Z,33.20
2018-01-14T19:09:44.826Z,37.35
2018-01-14T19:12:14.643Z,36.27
2018-01-14T19:14:43.679Z,34.77
2018-01-14T19:17:12.915Z,33.30
2018-01-14T19:19:42.679Z,33.97
2018-01-14T19:22:12.489Z,32.43
2018-01-14T19:24:41.924Z,33.03
2018-01-14T19:27:11.444Z,31.30
2018-01-14T19:29:41.275Z,30.87
2018-01-14T19:32:10.452Z,33.73
2018-01-14T19:34:39.878Z,30.17
2018-01-14T19:37:10.454Z,33.77
2018-01-14T19:39:41.882Z,36.40
2018-01-14T19:42:10.935Z,30.90
2018-01-14T19:44:40.714Z,28.47
2018-01-14T19:47:10.536Z,30.30
2018-01-14T19:49:39.548Z,38.07
2018-01-14T19:52:09.389Z,31.00
2018-01-14T19:54:38.428Z,41.83
2018-01-14T19:57:09.444Z,33.73
2018-01-14T19:59:39.237Z,33.80
2018-01-14T20:02:08.736Z,32.30
2018-01-14T20:04:37.733Z,32.23
2018-01-14T20:07:06.780Z,32.20
2018-01-14T20:09:35.818Z,32.73
2018-01-14T20:12:05.210Z,32.13
2018-01-14T20:14:35.020Z,31.87
2018-01-14T20:17:06.223Z,36.50
2018-01-14T20:19:36.019Z,30.90
2018-01-14T20:22:05.443Z,33.33
2018-01-14T20:24:34.886Z,37.00
2018-01-14T20:27:05.632Z,35.23
2018-01-14T20:29:35.614Z,38.70
2018-01-14T20:32:05.673Z,34.53
2018-01-14T20:34:35.472Z,33.47
2018-01-14T20:37:05.634Z,33.93
2018-01-14T20:39:35.504Z,34.53
2018-01-14T20:42:04.967Z,26.97
2018-01-14T20:44:34.792Z,34.07
2018-01-14T20:47:05.390Z,26.83
2018-01-14T20:49:34.811Z,31.07
2018-01-14T20:52:05.085Z,32.80
2018-01-14T20:54:34.989Z,31.07
2018-01-14T20:57:05.294Z,32.07
2018-01-14T20:59:38.705Z,35.93
2018-01-14T21:02:07.730Z,34.37
2018-01-14T21:04:37.503Z,29.37
2018-01-14T21:07:06.987Z,32.53
2018-01-14T21:09:36.816Z,33.00
2018-01-14T21:12:05.801Z,28.67
2018-01-14T21:14:35.513Z,33.17
2018-01-14T21:17:05.327Z,31.27
2018-01-14T21:19:35.386Z,31.77
2018-01-14T21:22:04.833Z,29.80
2018-01-14T21:24:34.603Z,32.33
2018-01-14T21:27:03.598Z,31.60
2018-01-14T21:29:33.411Z,32.53
2018-01-14T21:32:03.201Z,31.37
2018-01-14T21:34:33.188Z,26.63
2018-01-14T21:37:03.071Z,31.97
2018-01-14T21:39:32.825Z,29.03
2018-01-14T21:42:02.583Z,34.60
2018-01-14T21:44:31.606Z,28.23
2018-01-14T21:47:01.396Z,30.63
2018-01-14T21:49:31.197Z,30.27
2018-01-14T21:52:01.356Z,34.53
2018-01-14T21:54:30.377Z,29.70
2018-01-14T21:57:00.531Z,25.13
2018-01-14T21:59:29.589Z,31.77
2018-01-14T22:01:59.624Z,31.20
2018-01-14T22:04:28.581Z,30.93
2018-01-14T22:06:57.558Z,28.40
2018-01-14T22:09:26.553Z,31.93
2018-01-14T22:11:55.560Z,29.10
2018-01-14T22:14:25.662Z,27.03
2018-01-14T22:16:54.681Z,29.80
2018-01-14T22:19:23.673Z,31.50
2018-01-14T22:21:52.715Z,32.70
2018-01-14T22:24:22.575Z,29.87
2018-01-14T22:26:51.581Z,29.67
2018-01-14T22:29:20.537Z,31.80
2018-01-14T22:31:49.516Z,27.37
2018-01-14T22:34:19.357Z,28.67
2018-01-14T22:36:48.341Z,25.73
2018-01-14T22:39:17.705Z,26.83
2018-01-14T22:41:46.716Z,30.30
2018-01-14T22:44:16.456Z,25.90
2018-01-14T22:46:45.407Z,29.03
2018-01-14T22:49:14.401Z,26.30
2018-01-14T22:51:43.332Z,26.43
2018-01-14T22:54:12.690Z,27.70
2018-01-14T22:56:41.727Z,27.30
2018-01-14T22:59:10.709Z,28.60
2018-01-14T23:01:39.641Z,27.60
2018-01-14T23:04:08.624Z,28.80
2018-01-14T23:06:37.566Z,27.37
2018-01-14T23:09:07.331Z,26.27
2018-01-14T23:11:36.377Z,26.77
2018-01-14T23:14:06.088Z,26.73
2018-01-14T23:16:35.051Z,23.57
2018-01-14T23:19:04.162Z,30.40
2018-01-14T23:21:33.539Z,27.57
2018-01-14T23:24:02.598Z,25.93
2018-01-14T23:26:31.548Z,28.90
2018-01-14T23:29:01.287Z,28.27
2018-01-14T23:31:30.660Z,27.50
2018-01-14T23:34:00.440Z,27.57
2018-01-14T23:36:29.392Z,29.20
2018-01-14T23:38:58.348Z,24.30
2018-01-14T23:41:27.729Z,27.60
2018-01-14T23:43:56.747Z,31.03
2018-01-14T23:46:27.205Z,29.13
2018-01-14T23:48:56.544Z,29.83
2018-01-14T23:51:25.547Z,30.63
2018-01-14T23:53:54.477Z,31.27
2018-01-14T23:56:23.861Z,30.67
2018-01-14T23:58:53.586Z,27.80
